Time;durP1;ratioP1;P1;durP2;ratioP2;P2;SDS_P1;SDS_P2;PMS_P1;PMS_P2;Temp;Humidity;BMP_temperature;BMP_pressure;BME280_temperature;BME280_humidity;BME280_pressure;Samples;Min_cycle;Max_cycle;Signal;HPM_P1;HPM_P2
2024/01/14 00:00:06;;;;;;;0.63;0.27;;;;;;;5.55;68.52;100135.16;5036118;28;20116;-39
2024/01/14 00:02:32;;;;;;;0.75;0.35;;;;;;;5.87;68.27;100132.81;5033866;28;20290;-40
2024/01/14 00:04:58;;;;;;;0.17;0.13;;;;;;;5.50;67.90;100143.22;5028245;28;20036;-39
2024/01/14 00:07:23;;;;;;;1.73;0.90;;;;;;;5.74;67.78;100124.72;5042144;28;20032;-39
2024/01/14 00:09:49;;;;;;;1.27;0.80;;;;;;;5.82;67.49;100119.16;5036193;28;20585;-39
2024/01/14 00:12:14;;;;;;;1.50;0.93;;;;;;;5.57;67.92;100115.06;5036154;28;20029;-39
2024/01/14 00:14:41;;;;;;;1.30;0.73;;;;;;;5.54;67.76;100117.81;5034107;28;20082;-39
2024/01/14 00:17:07;;;;;;;1.02;0.57;;;;;;;5.62;67.92;100113.94;5020954;28;20025;-38
2024/01/14 00:19:32;;;;;;;61.58;55.90;;;;;;;5.48;68.27;100105.91;5037499;28;20032;-39
2024/01/14 00:21:58;;;;;;;111.82;100.28;;;;;;;5.55;68.01;100099.50;5028080;28;20037;-39
2024/01/14 00:24:23;;;;;;;71.75;64.10;;;;;;;5.80;67.23;100103.53;5017947;28;20044;-40
2024/01/14 00:26:49;;;;;;;93.82;84.07;;;;;;;5.44;67.53;100105.22;5035988;28;20988;-39
2024/01/14 00:29:14;;;;;;;94.68;84.55;;;;;;;5.61;67.72;100111.41;5040121;28;20993;-39
2024/01/14 00:31:39;;;;;;;108.55;97.00;;;;;;;5.59;67.87;100092.34;5035490;28;20095;-39
2024/01/14 00:34:05;;;;;;;147.57;131.48;;;;;;;5.78;67.35;100100.16;5035299;28;20123;-39
2024/01/14 00:36:30;;;;;;;188.27;167.95;;;;;;;5.52;67.90;100097.03;5034151;28;20075;-39
2024/01/14 00:38:55;;;;;;;192.80;172.55;;;;;;;5.74;67.77;100083.78;5018738;28;20447;-39
2024/01/14 00:41:21;;;;;;;159.05;141.55;;;;;;;5.78;67.13;100087.09;5034273;28;20056;-39
2024/01/14 00:43:46;;;;;;;187.98;164.80;;;;;;;5.78;67.21;100087.97;5037420;28;20147;-39
2024/01/14 00:46:12;;;;;;;199.07;177.80;;;;;;;5.69;67.50;100082.31;5038538;28;20033;-39
2024/01/14 00:48:37;;;;;;;242.95;213.30;;;;;;;6.06;66.17;100073.56;5038180;28;20031;-39
2024/01/14 00:51:04;;;;;;;235.48;208.77;;;;;;;5.93;66.23;100062.00;5021835;28;20029;-39
2024/01/14 00:53:29;;;;;;;210.25;183.20;;;;;;;6.19;65.54;100071.19;5039006;28;20503;-39
2024/01/14 00:55:55;;;;;;;215.95;192.75;;;;;;;5.77;65.98;100077.56;5036802;28;20036;-40
2024/01/14 00:58:20;;;;;;;225.35;200.70;;;;;;;5.77;69.62;100075.81;5038952;28;20053;-39
2024/01/14 01:00:46;;;;;;;181.15;161.02;;;;;;;5.64;67.47;100080.78;5033251;28;20124;-39
2024/01/14 01:03:11;;;;;;;235.40;204.50;;;;;;;5.70;67.05;100071.78;5036709;28;20041;-40
2024/01/14 01:05:39;;;;;;;236.13;210.52;;;;;;;5.65;67.02;100074.63;5036624;28;20037;-40
2024/01/14 01:08:08;;;;;;;292.05;240.15;;;;;;;5.55;67.06;100069.91;5033382;28;20046;-39
2024/01/14 01:10:33;;;;;;;339.55;263.67;;;;;;;5.57;66.83;100071.56;5036856;28;20488;-38
2024/01/14 01:12:59;;;;;;;295.52;254.38;;;;;;;5.68;66.81;100052.75;5041819;28;20045;-40
2024/01/14 01:15:24;;;;;;;399.17;299.38;;;;;;;5.88;66.24;100057.03;5038193;28;20506;-40
2024/01/14 01:17:49;;;;;;;243.18;204.45;;;;;;;5.80;66.26;100064.38;5021794;28;20132;-40
2024/01/14 01:20:15;;;;;;;141.10;125.72;;;;;;;6.08;65.92;100055.19;5031416;28;20044;-40
2024/01/14 01:22:40;;;;;;;79.03;70.93;;;;;;;5.85;66.00;100057.16;5036033;28;20048;-40
2024/01/14 01:25:06;;;;;;;89.95;80.43;;;;;;;5.73;66.59;100042.09;5042153;28;20132;-40
2024/01/14 01:27:32;;;;;;;126.55;110.28;;;;;;;6.01;66.20;100049.44;5048414;28;20499;-39
2024/01/14 01:29:57;;;;;;;184.60;164.50;;;;;;;5.46;66.45;100055.53;5033170;28;20029;-39
2024/01/14 01:32:22;;;;;;;186.95;157.45;;;;;;;5.92;65.64;100048.09;5011444;28;20047;-39
2024/01/14 01:34:48;;;;;;;170.93;151.93;;;;;;;5.56;65.89;100049.00;5037982;28;20033;-39
2024/01/14 01:37:14;;;;;;;118.53;105.68;;;;;;;5.88;65.54;100051.81;5035137;28;20040;-39
2024/01/14 01:39:39;;;;;;;120.07;99.68;;;;;;;5.82;65.41;100051.25;5040486;28;20032;-39
2024/01/14 01:42:05;;;;;;;93.40;83.13;;;;;;;5.69;65.50;100038.78;5038425;28;20149;-40
2024/01/14 01:44:31;;;;;;;88.97;77.32;;;;;;;5.91;65.33;100040.34;5041408;28;20032;-40
2024/01/14 01:46:57;;;;;;;113.68;98.30;;;;;;;5.86;64.22;100039.72;5036732;28;20491;-39
2024/01/14 01:49:23;;;;;;;126.43;111.15;;;;;;;5.83;63.96;100042.47;5027214;28;20040;-39
2024/01/14 01:51:50;;;;;;;127.72;109.57;;;;;;;5.80;64.86;100039.13;5037408;28;21283;-39
2024/01/14 01:54:21;;;;;;;151.57;130.10;;;;;;;6.18;64.16;100045.13;5041532;28;20028;-40
2024/01/14 01:56:47;;;;;;;151.88;130.15;;;;;;;5.65;64.38;100042.47;5033605;28;20495;-40
2024/01/14 01:59:13;;;;;;;135.88;112.97;;;;;;;5.76;64.37;100041.94;5039060;28;20479;-39
2024/01/14 02:01:39;;;;;;;148.57;115.82;;;;;;;6.04;63.58;100041.47;5033897;28;20039;-39
2024/01/14 02:04:07;;;;;;;153.07;134.57;;;;;;;5.91;63.99;100040.34;5039293;28;20037;-39
2024/01/14 02:06:32;;;;;;;169.93;150.80;;;;;;;5.79;64.68;100032.22;5031207;28;20392;-39
2024/01/14 02:08:58;;;;;;;165.40;143.55;;;;;;;5.64;64.76;100032.97;5028702;28;20043;-40
2024/01/14 02:11:23;;;;;;;127.28;107.63;;;;;;;5.94;64.28;100034.97;5035388;28;20646;-40
2024/01/14 02:13:49;;;;;;;217.82;183.50;;;;;;;6.04;64.46;100033.63;5038781;28;20502;-40
2024/01/14 02:16:15;;;;;;;253.25;215.27;;;;;;;6.08;63.95;100036.91;5034822;28;20090;-39
2024/01/14 02:18:41;;;;;;;199.63;176.55;;;;;;;5.93;64.22;100041.13;5039421;28;20047;-41
2024/01/14 02:21:08;;;;;;;2.67;0.85;;;;;;;5.83;64.63;100027.66;5038982;28;20033;-40
2024/01/14 02:23:38;;;;;;;3.33;1.02;;;;;;;5.94;64.46;100024.53;5009704;28;20123;-40
2024/01/14 02:26:03;;;;;;;2.20;0.45;;;;;;;5.80;64.86;100030.44;5040132;28;20029;-40
2024/01/14 02:28:30;;;;;;;2.58;0.70;;;;;;;6.07;64.29;100023.03;5039000;28;20106;-40
2024/01/14 02:30:56;;;;;;;6.93;1.00;;;;;;;6.03;64.15;100024.09;5039920;28;20120;-40
2024/01/14 02:33:23;;;;;;;2.03;0.40;;;;;;;5.87;63.92;100015.31;5035209;28;20020;-40
2024/01/14 02:35:48;;;;;;;2.55;0.55;;;;;;;5.80;64.32;100014.75;5036309;28;20037;-39
2024/01/14 02:38:14;;;;;;;3.00;0.77;;;;;;;5.87;63.89;100012.69;5036267;28;20389;-40
2024/01/14 02:40:39;;;;;;;3.47;1.05;;;;;;;5.96;62.88;100014.88;5032319;28;20128;-40
2024/01/14 02:43:05;;;;;;;5.07;1.70;;;;;;;5.83;63.30;100011.16;5026380;28;20036;-39
2024/01/14 02:45:30;;;;;;;4.90;1.55;;;;;;;5.58;64.01;100001.91;5037216;28;20061;-40
2024/01/14 02:47:56;;;;;;;4.65;1.08;;;;;;;5.73;63.59;100009.00;5032433;28;21122;-39
2024/01/14 02:50:22;;;;;;;1.75;0.47;;;;;;;6.06;62.51;100010.88;5035719;28;20041;-40
2024/01/14 02:52:47;;;;;;;2.15;0.68;;;;;;;5.91;62.49;100002.00;5035096;28;20159;-39
2024/01/14 02:55:13;;;;;;;3.47;1.58;;;;;;;5.88;63.36;100004.81;5039341;28;20044;-39
2024/01/14 02:57:38;;;;;;;1.55;0.50;;;;;;;5.43;63.96;99995.69;5038396;28;20032;-39
2024/01/14 03:00:06;;;;;;;1.65;0.52;;;;;;;6.04;63.22;99997.06;5041271;28;20591;-40
2024/01/14 03:02:31;;;;;;;3.15;1.30;;;;;;;6.15;63.21;99996.50;5040003;28;20036;-39
2024/01/14 03:04:57;;;;;;;2.35;0.95;;;;;;;6.06;63.32;99997.81;5030247;28;20045;-40
2024/01/14 03:07:22;;;;;;;1.92;0.70;;;;;;;6.09;62.79;99987.22;5019691;28;20037;-38
2024/01/14 03:09:48;;;;;;;1.50;0.57;;;;;;;6.10;62.50;99990.66;5034017;28;20040;-39
2024/01/14 03:12:13;;;;;;;3.15;1.60;;;;;;;6.16;62.56;99979.06;5041800;28;20033;-39
2024/01/14 03:14:39;;;;;;;2.20;1.15;;;;;;;5.79;63.22;99993.06;5035633;28;20085;-40
2024/01/14 03:17:04;;;;;;;1.13;0.38;;;;;;;5.81;63.77;99992.97;5025478;28;20037;-40
2024/01/14 03:19:29;;;;;;;1.70;0.63;;;;;;;5.41;64.94;99989.72;5043450;28;20033;-42
2024/01/14 03:21:55;;;;;;;1.58;0.98;;;;;;;5.39;64.61;99987.16;5036191;28;20048;-40
2024/01/14 03:24:20;;;;;;;1.30;0.45;;;;;;;5.54;64.61;99984.72;5035962;28;20614;-39
2024/01/14 03:26:46;;;;;;;14.90;8.15;;;;;;;5.43;64.41;99975.66;5037933;28;20033;-39
2024/01/14 03:29:11;;;;;;;1.40;1.02;;;;;;;5.65;64.20;99988.50;5040608;28;20572;-40
2024/01/14 03:31:36;;;;;;;0.95;0.32;;;;;;;5.54;63.88;99976.88;5044106;28;20037;-40
2024/01/14 03:34:02;;;;;;;6.55;2.63;;;;;;;5.31;65.02;99968.44;5036446;28;20036;-40
2024/01/14 03:36:27;;;;;;;2.08;1.05;;;;;;;5.69;64.35;99968.31;5038328;28;20025;-40
2024/01/14 03:38:53;;;;;;;5.55;3.65;;;;;;;5.43;65.23;99986.09;5032349;28;20561;-40
2024/01/14 03:41:18;;;;;;;3.63;1.52;;;;;;;5.43;65.29;99980.88;5038203;28;20029;-39
2024/01/14 03:43:44;;;;;;;2.33;1.00;;;;;;;5.42;65.17;99987.00;5037652;28;20484;-40
2024/01/14 03:46:09;;;;;;;4.03;0.70;;;;;;;5.28;65.53;99990.31;5038082;28;20471;-39
2024/01/14 03:48:35;;;;;;;6.65;1.90;;;;;;;4.83;66.12;99979.34;5040371;28;20057;-41
2024/01/14 03:51:00;;;;;;;2.55;1.27;;;;;;;5.37;65.41;99983.78;5035873;28;20045;-40
2024/01/14 03:53:26;;;;;;;1.27;0.70;;;;;;;5.29;65.35;99972.88;5035570;28;20468;-40
2024/01/14 03:55:51;;;;;;;0.75;0.45;;;;;;;5.77;63.89;99984.44;5037747;28;20075;-39
2024/01/14 03:58:17;;;;;;;1.23;0.75;;;;;;;5.49;64.28;99991.03;5033674;28;20041;-40
2024/01/14 04:00:42;;;;;;;1.95;0.88;;;;;;;5.76;63.84;99985.38;5038418;28;20531;-39
2024/01/14 04:03:07;;;;;;;1.38;0.75;;;;;;;5.45;64.16;99976.44;5037648;28;20127;-40
2024/01/14 04:05:33;;;;;;;1.45;0.73;;;;;;;5.59;63.69;99977.50;5040151;28;20029;-41
2024/01/14 04:07:58;;;;;;;0.80;0.47;;;;;;;5.29;64.29;99980.69;5036362;28;20028;-41
2024/01/14 04:10:24;;;;;;;0.80;0.50;;;;;;;5.48;64.00;99970.22;5041001;28;20036;-39
2024/01/14 04:12:49;;;;;;;2.63;2.10;;;;;;;5.41;64.62;99972.28;5039767;28;20045;-40
2024/01/14 04:15:15;;;;;;;0.68;0.38;;;;;;;5.64;63.66;99978.16;5033779;28;20029;-39
2024/01/14 04:17:44;;;;;;;2.42;1.02;;;;;;;5.43;63.92;99967.81;5044422;28;20049;-39
2024/01/14 04:20:10;;;;;;;0.85;0.40;;;;;;;5.75;63.42;99978.44;5046426;28;20118;-40
2024/01/14 04:22:35;;;;;;;0.90;0.43;;;;;;;5.74;63.64;99981.97;5046077;28;20091;-40
2024/01/14 04:25:01;;;;;;;0.95;0.47;;;;;;;5.61;64.05;99981.72;5039698;28;20098;-39
2024/01/14 04:27:26;;;;;;;0.70;0.40;;;;;;;5.69;63.43;99981.34;5045224;28;20037;-40
2024/01/14 04:29:52;;;;;;;0.95;0.95;;;;;;;5.74;63.27;99992.41;5030156;28;20048;-39
2024/01/14 04:32:17;;;;;;;2.90;0.47;;;;;;;5.27;64.44;99982.53;5038586;28;20037;-39
2024/01/14 04:34:42;;;;;;;11.00;3.03;;;;;;;5.73;63.90;100001.16;5037519;28;20045;-39
2024/01/14 04:37:08;;;;;;;2.63;1.15;;;;;;;5.51;63.90;99990.09;5039596;28;20111;-40
2024/01/14 04:39:33;;;;;;;2.10;1.02;;;;;;;5.54;64.37;99992.53;5042693;28;20052;-40
2024/01/14 04:41:58;;;;;;;0.65;0.40;;;;;;;5.41;64.98;99995.75;5043627;28;20075;-41
2024/01/14 04:44:24;;;;;;;12.30;10.48;;;;;;;5.69;64.02;99999.63;5043056;28;20051;-39
2024/01/14 04:46:49;;;;;;;49.47;45.47;;;;;;;5.72;63.56;99994.25;5042659;28;20063;-40
2024/01/14 04:49:14;;;;;;;58.33;52.97;;;;;;;5.91;63.48;99993.34;5043520;28;20476;-40
2024/01/14 04:51:40;;;;;;;49.22;44.88;;;;;;;5.63;63.93;99999.94;5038176;28;20068;-39
2024/01/14 04:54:07;;;;;;;0.85;0.40;;;;;;;5.63;63.85;100002.56;5034911;28;20036;-39
2024/01/14 04:56:33;;;;;;;2.15;1.05;;;;;;;5.68;64.10;99991.88;5037908;28;20021;-40
2024/01/14 04:58:59;;;;;;;1.02;0.45;;;;;;;5.78;64.03;99998.31;5039321;28;20527;-40
2024/01/14 05:01:24;;;;;;;1.60;0.85;;;;;;;5.49;64.02;99991.03;5041262;28;20124;-41
2024/01/14 05:03:49;;;;;;;6.53;2.95;;;;;;;5.45;64.59;99992.09;5040783;28;20106;-39
2024/01/14 05:06:15;;;;;;;1.48;0.70;;;;;;;5.51;64.53;99992.72;5045911;28;20116;-41
2024/01/14 05:08:43;;;;;;;5.90;1.08;;;;;;;5.29;65.31;99991.13;5044288;28;20438;-39
2024/01/14 05:11:09;;;;;;;3.83;1.35;;;;;;;5.31;65.06;99986.69;5039290;28;20036;-39
2024/01/14 05:13:35;;;;;;;0.82;0.45;;;;;;;5.63;64.25;99984.28;5045460;28;20041;-39
2024/01/14 05:16:01;;;;;;;0.57;0.32;;;;;;;5.41;64.72;99993.16;5047873;28;20025;-41
2024/01/14 05:18:26;;;;;;;1.33;0.95;;;;;;;5.35;64.51;99985.63;5046442;28;20897;-40
2024/01/14 05:20:52;;;;;;;1.02;0.50;;;;;;;5.12;65.14;99992.78;5045255;28;20036;-40
2024/01/14 05:23:18;;;;;;;1.48;0.57;;;;;;;5.31;65.11;99986.69;5046730;28;20127;-39
2024/01/14 05:25:43;;;;;;;2.00;0.85;;;;;;;5.07;65.78;99986.91;5046028;28;20140;-40
2024/01/14 05:28:09;;;;;;;0.68;0.40;;;;;;;5.08;66.10;99990.38;5039728;28;20549;-40
2024/01/14 05:30:34;;;;;;;2.88;1.30;;;;;;;5.35;65.04;99990.84;5041294;28;20507;-39
2024/01/14 05:32:59;;;;;;;1.75;0.80;;;;;;;5.07;66.50;99992.13;5044643;28;20103;-40
2024/01/14 05:35:25;;;;;;;30.15;3.40;;;;;;;5.22;65.65;100005.41;5038750;28;20120;-39
2024/01/14 05:37:50;;;;;;;10.57;4.93;;;;;;;5.18;66.17;99999.47;5043620;28;20083;-40
2024/01/14 05:40:15;;;;;;;1.55;0.80;;;;;;;4.96;66.05;99990.06;5041214;28;20064;-39
2024/01/14 05:42:42;;;;;;;2.38;1.60;;;;;;;5.00;66.02;99995.97;5046109;28;20036;-39
2024/01/14 05:45:10;;;;;;;1.70;0.90;;;;;;;5.09;65.97;99999.91;5038290;28;20041;-39
2024/01/14 05:47:35;;;;;;;1.35;0.63;;;;;;;5.00;66.10;99998.56;5045093;28;20104;-39
2024/01/14 05:50:01;;;;;;;27.65;25.52;;;;;;;4.94;65.99;99996.22;5044372;28;20049;-39
2024/01/14 05:52:26;;;;;;;62.05;56.30;;;;;;;4.78;66.22;99999.53;5045902;28;20395;-40
2024/01/14 05:54:52;;;;;;;84.68;75.63;;;;;;;4.84;66.10;99986.25;5038446;28;20041;-39
2024/01/14 05:57:17;;;;;;;77.60;69.32;;;;;;;4.80;66.23;99994.28;5039193;28;20108;-39
2024/01/14 05:59:43;;;;;;;66.28;60.00;;;;;;;4.73;66.29;99999.75;5043382;28;20064;-39
2024/01/14 06:02:09;;;;;;;77.05;69.20;;;;;;;4.85;66.12;100002.72;5035237;28;20044;-39
2024/01/14 06:04:34;;;;;;;76.20;68.30;;;;;;;4.81;66.61;99996.81;5037479;28;20114;-40
2024/01/14 06:07:00;;;;;;;73.65;65.72;;;;;;;5.14;65.42;99993.56;5042643;28;20033;-39
2024/01/14 06:09:25;;;;;;;88.95;77.53;;;;;;;4.90;66.36;99994.72;5043866;28;20070;-39
2024/01/14 06:11:51;;;;;;;87.20;77.88;;;;;;;4.76;66.68;99980.53;5041644;28;20056;-39
2024/01/14 06:14:16;;;;;;;44.40;40.47;;;;;;;4.81;66.57;99978.56;5036964;28;20120;-40
2024/01/14 06:16:41;;;;;;;61.50;55.50;;;;;;;5.14;66.15;99983.13;5044515;28;20021;-40
2024/01/14 06:19:07;;;;;;;63.08;56.95;;;;;;;5.14;65.82;99985.72;5041271;28;20468;-40
2024/01/14 06:21:32;;;;;;;57.10;52.13;;;;;;;4.83;66.66;99989.75;5024269;28;20029;-40
2024/01/14 06:23:58;;;;;;;85.68;73.32;;;;;;;5.12;65.83;99994.56;5043963;28;20040;-40
2024/01/14 06:26:23;;;;;;;95.93;83.63;;;;;;;4.61;66.55;99989.88;5041801;28;20075;-40
2024/01/14 06:28:48;;;;;;;170.93;147.73;;;;;;;4.61;67.77;99996.88;5044422;28;20039;-40
2024/01/14 06:31:14;;;;;;;193.65;166.18;;;;;;;4.79;66.96;99990.81;5045448;28;20037;-40
2024/01/14 06:33:40;;;;;;;287.08;218.75;;;;;;;5.23;65.96;99986.19;5035422;28;20041;-40
2024/01/14 06:36:06;;;;;;;278.25;221.15;;;;;;;5.15;65.54;99990.03;5043568;28;20029;-40
2024/01/14 06:38:33;;;;;;;90.60;77.70;;;;;;;5.16;65.62;99983.03;5040376;28;20530;-40
2024/01/14 06:40:59;;;;;;;71.22;57.20;;;;;;;5.25;65.49;99989.56;5041728;28;20037;-40
2024/01/14 06:43:24;;;;;;;9.25;6.35;;;;;;;5.44;64.46;99987.78;5034496;28;20059;-39
2024/01/14 06:45:50;;;;;;;13.10;7.53;;;;;;;5.17;65.29;99984.72;5040825;28;20098;-39
2024/01/14 06:48:15;;;;;;;9.50;1.90;;;;;;;5.16;64.96;100002.16;5045216;28;20029;-39
2024/01/14 06:50:40;;;;;;;97.15;86.45;;;;;;;4.86;65.38;99989.63;5043867;28;20130;-40
2024/01/14 06:53:06;;;;;;;38.97;31.85;;;;;;;5.01;65.75;99982.84;5044344;28;20028;-40
2024/01/14 06:55:31;;;;;;;16.60;15.38;;;;;;;5.24;64.67;99974.84;5041097;28;20017;-40
2024/01/14 06:57:57;;;;;;;91.22;75.88;;;;;;;5.41;64.41;99985.31;5039363;28;20040;-39
2024/01/14 07:00:22;;;;;;;157.25;122.82;;;;;;;5.37;64.63;99986.38;5040922;28;20053;-39
2024/01/14 07:02:48;;;;;;;153.80;122.00;;;;;;;5.24;64.76;99995.72;5044518;28;20383;-40
2024/01/14 07:05:13;;;;;;;119.40;98.95;;;;;;;4.71;65.30;100003.34;5036565;28;20029;-40
2024/01/14 07:07:39;;;;;;;120.80;99.35;;;;;;;5.28;64.32;99987.69;5036229;28;20107;-39
2024/01/14 07:10:05;;;;;;;118.05;96.32;;;;;;;5.33;64.34;99997.91;5031885;28;20056;-39
2024/01/14 07:12:30;;;;;;;146.40;115.28;;;;;;;5.44;64.41;99995.63;5035660;28;20028;-40
2024/01/14 07:14:56;;;;;;;190.52;143.90;;;;;;;5.33;64.58;100003.94;5043469;28;20044;-40
2024/01/14 07:17:21;;;;;;;175.75;138.77;;;;;;;5.38;64.49;99998.50;5026166;28;20029;-39
2024/01/14 07:19:47;;;;;;;182.93;143.93;;;;;;;5.11;64.43;99998.06;5038667;28;20059;-40
2024/01/14 07:22:13;;;;;;;41.33;37.28;;;;;;;5.41;64.68;99992.31;5040766;28;20032;-40
2024/01/14 07:24:38;;;;;;;296.75;184.52;;;;;;;5.33;64.65;99997.91;5042711;28;20028;-40
2024/01/14 07:27:04;;;;;;;408.65;270.95;;;;;;;5.25;65.08;99989.56;5037224;28;20067;-40
2024/01/14 07:29:30;;;;;;;492.65;242.38;;;;;;;5.44;64.19;99990.41;5038970;28;20053;-39
2024/01/14 07:31:56;;;;;;;61.92;55.40;;;;;;;5.28;64.68;99992.06;5036277;28;20032;-40
2024/01/14 07:34:21;;;;;;;13.90;3.63;;;;;;;5.46;64.20;99991.16;5006611;28;20095;-39
2024/01/14 07:36:47;;;;;;;155.38;130.75;;;;;;;5.47;64.12;99995.47;5034687;28;20529;-40
2024/01/14 07:39:13;;;;;;;229.20;186.32;;;;;;;5.43;64.61;99993.91;5039030;28;20476;-39
2024/01/14 07:41:39;;;;;;;271.75;206.25;;;;;;;5.49;64.05;99998.84;5039861;28;20544;-40
2024/01/14 07:44:05;;;;;;;273.00;212.18;;;;;;;5.40;64.70;99993.22;5038056;28;20028;-40
2024/01/14 07:46:31;;;;;;;165.15;147.32;;;;;;;5.34;64.34;99999.59;5038509;28;20499;-40
2024/01/14 07:48:57;;;;;;;135.50;115.53;;;;;;;5.26;64.68;99993.88;5038714;28;20029;-40
2024/01/14 07:51:22;;;;;;;135.82;114.22;;;;;;;5.52;64.04;99992.63;5041878;28;20487;-39
2024/01/14 07:53:47;;;;;;;393.92;232.25;;;;;;;5.40;64.60;100004.50;5023505;28;20041;-40
2024/01/14 07:56:13;;;;;;;173.52;154.95;;;;;;;5.47;64.42;99999.84;5023874;28;20029;-39
2024/01/14 07:58:38;;;;;;;182.77;159.98;;;;;;;5.38;64.40;100001.13;5043288;28;20110;-39
2024/01/14 08:01:06;;;;;;;227.15;181.80;;;;;;;5.67;63.89;99996.28;5039844;28;20079;-40
2024/01/14 08:03:31;;;;;;;215.70;169.25;;;;;;;5.67;63.96;99998.88;5043561;28;20025;-40
2024/01/14 08:05:57;;;;;;;112.25;100.15;;;;;;;5.15;64.63;99995.25;5044229;28;20033;-39
2024/01/14 08:08:23;;;;;;;215.38;192.52;;;;;;;5.15;64.74;100005.69;5046009;28;20028;-40
2024/01/14 08:10:49;;;;;;;254.25;222.32;;;;;;;5.51;64.60;100008.38;5040534;28;20068;-39
2024/01/14 08:13:14;;;;;;;204.32;182.48;;;;;;;5.24;64.62;100007.00;5028524;28;20143;-40
2024/01/14 08:15:40;;;;;;;180.35;160.68;;;;;;;5.33;65.01;100003.13;5041896;28;20033;-41
2024/01/14 08:18:05;;;;;;;251.90;219.05;;;;;;;5.17;64.95;100013.41;5042495;28;20028;-40
2024/01/14 08:20:32;;;;;;;293.35;230.30;;;;;;;5.36;65.42;100002.97;5040359;28;20033;-39
2024/01/14 08:22:57;;;;;;;145.18;129.10;;;;;;;4.74;66.61;100008.44;5043049;28;20640;-39
2024/01/14 08:25:23;;;;;;;115.80;103.00;;;;;;;4.98;66.22;100005.63;5039915;28;20146;-39
2024/01/14 08:27:55;;;;;;;153.32;133.73;;;;;;;5.36;65.43;100002.97;5025076;28;20069;-40
2024/01/14 08:30:20;;;;;;;;;;;;;;;5.43;65.03;100009.56;5044437;28;20037;-40
2024/01/14 08:32:46;;;;;;;95.63;85.40;;;;;;;5.51;64.43;100011.00;5030867;28;19916;-39
2024/01/14 08:35:12;;;;;;;68.80;61.97;;;;;;;5.24;65.57;100004.41;5039995;28;20040;-40
2024/01/14 08:37:37;;;;;;;45.30;41.97;;;;;;;5.31;64.74;100007.56;5042689;28;20516;-39
2024/01/14 08:40:03;;;;;;;50.47;46.20;;;;;;;5.43;64.95;100004.34;5043688;28;20041;-40
2024/01/14 08:42:29;;;;;;;34.08;31.70;;;;;;;5.46;64.82;100006.81;5043748;28;20028;-40
2024/01/14 08:44:54;;;;;;;14.70;13.32;;;;;;;5.57;64.32;100002.84;5040711;28;20029;-40
2024/01/14 08:47:20;;;;;;;74.03;66.07;;;;;;;5.55;64.83;100020.34;5041815;28;20033;-40
2024/01/14 08:49:45;;;;;;;140.13;124.88;;;;;;;5.36;64.80;100007.34;5039372;28;20124;-39
2024/01/14 08:52:11;;;;;;;159.23;140.95;;;;;;;5.29;65.24;100009.41;5035337;28;20406;-39
2024/01/14 08:54:39;;;;;;;115.25;101.38;;;;;;;4.93;66.25;100015.41;5041714;28;20037;-39
2024/01/14 08:57:07;;;;;;;196.75;174.70;;;;;;;5.44;65.09;100010.44;5042790;28;20036;-39
2024/01/14 08:59:32;;;;;;;155.55;133.05;;;;;;;5.45;65.32;100006.88;5040619;28;20025;-40
2024/01/14 09:01:58;;;;;;;163.82;146.02;;;;;;;5.09;65.69;100016.38;5041464;28;20029;-39
2024/01/14 09:04:23;;;;;;;201.98;180.20;;;;;;;5.25;65.83;100019.13;5043022;28;20083;-39
2024/01/14 09:06:48;;;;;;;250.10;212.57;;;;;;;5.37;65.67;100012.47;5035935;28;20048;-39
2024/01/14 09:09:14;;;;;;;134.40;114.25;;;;;;;5.61;64.46;100023.50;5040350;28;20523;-40
2024/01/14 09:11:39;;;;;;;188.90;167.85;;;;;;;5.59;64.31;100024.50;5030343;28;20037;-41
2024/01/14 09:14:05;;;;;;;233.43;198.20;;;;;;;5.46;65.11;100005.97;5028433;28;20456;-39
2024/01/14 09:16:31;;;;;;;220.05;195.40;;;;;;;4.92;66.17;100014.56;5036628;28;20056;-39
2024/01/14 09:18:56;;;;;;;229.57;199.82;;;;;;;4.87;66.28;100027.81;5035091;28;20040;-40
2024/01/14 09:21:21;;;;;;;195.70;174.27;;;;;;;5.32;64.92;100017.09;5034336;28;20727;-40
2024/01/14 09:23:47;;;;;;;205.40;179.25;;;;;;;5.32;65.08;100012.69;5037084;28;20071;-40
2024/01/14 09:26:13;;;;;;;217.65;181.48;;;;;;;5.36;64.60;100023.84;5039428;28;20032;-40
2024/01/14 09:28:38;;;;;;;217.52;183.10;;;;;;;5.19;65.38;100008.97;5040941;28;20029;-39
2024/01/14 09:31:04;;;;;;;200.07;178.07;;;;;;;5.14;65.44;100016.19;5033780;28;20052;-39
2024/01/14 09:33:30;;;;;;;239.43;199.05;;;;;;;5.30;65.02;100013.69;5034941;28;20033;-40
2024/01/14 09:35:55;;;;;;;222.25;192.40;;;;;;;5.25;64.91;100005.22;5040383;28;20040;-39
2024/01/14 09:38:22;;;;;;;203.30;179.30;;;;;;;5.17;65.16;100008.19;5038007;28;20029;-39
2024/01/14 09:40:59;;;;;;;204.55;175.27;;;;;;;5.54;64.61;100009.06;5037909;28;20037;-39
2024/01/14 09:43:27;;;;;;;148.70;131.88;;;;;;;5.64;64.17;100009.47;5038360;28;20039;-39
2024/01/14 09:45:52;;;;;;;208.23;183.68;;;;;;;5.49;64.85;100014.50;5040368;28;20033;-39
2024/01/14 09:48:18;;;;;;;218.20;181.45;;;;;;;5.44;64.40;100029.53;5035895;28;20029;-39
2024/01/14 09:50:44;;;;;;;223.52;193.27;;;;;;;5.54;64.95;100016.91;5038802;28;20127;-40
2024/01/14 09:53:14;;;;;;;265.30;217.13;;;;;;;5.54;64.63;100005.59;5037373;28;20036;-39
2024/01/14 09:55:40;;;;;;;288.60;235.63;;;;;;;5.40;65.13;100006.28;5037826;28;20022;-40
2024/01/14 09:58:06;;;;;;;304.05;239.15;;;;;;;5.63;64.56;100010.38;5032187;28;20036;-40
2024/01/14 10:00:32;;;;;;;281.63;231.13;;;;;;;5.62;64.44;99993.03;5038384;28;20119;-39
2024/01/14 10:02:59;;;;;;;280.52;228.93;;;;;;;5.47;64.37;99995.47;5025480;28;20032;-40
2024/01/14 10:05:24;;;;;;;338.00;258.65;;;;;;;5.60;64.27;99992.25;5030337;28;22519;-40
2024/01/14 10:07:50;;;;;;;267.45;232.57;;;;;;;5.54;64.26;99989.94;5038612;28;20106;-40
2024/01/14 10:10:15;;;;;;;287.77;236.68;;;;;;;5.52;64.77;99999.63;5016896;28;20107;-40
2024/01/14 10:12:41;;;;;;;288.48;233.95;;;;;;;5.77;64.14;99986.19;5038011;28;20040;-40
2024/01/14 10:15:07;;;;;;;321.33;255.43;;;;;;;5.63;64.16;99987.72;5038992;28;20437;-40
2024/01/14 10:17:33;;;;;;;292.70;247.98;;;;;;;5.76;64.19;99980.13;5018380;28;20045;-40
2024/01/14 10:19:58;;;;;;;243.07;208.73;;;;;;;5.93;63.75;99981.06;5030167;28;20029;-40
2024/01/14 10:22:27;;;;;;;239.60;203.40;;;;;;;6.01;63.51;99989.38;5032612;28;20033;-40
2024/01/14 10:24:55;;;;;;;162.00;140.13;;;;;;;6.00;63.86;99982.47;5035515;28;20028;-40
2024/01/14 10:27:22;;;;;;;159.70;141.10;;;;;;;6.03;63.95;99992.75;5037774;28;20128;-39
2024/01/14 10:29:48;;;;;;;165.18;143.13;;;;;;;5.91;64.21;99967.22;5038603;28;20024;-40
2024/01/14 10:32:14;;;;;;;165.48;140.60;;;;;;;5.72;64.42;99981.22;5034812;28;20041;-39
2024/01/14 10:34:43;;;;;;;195.45;166.65;;;;;;;5.91;63.76;99962.84;5023213;28;20063;-39
2024/01/14 10:37:08;;;;;;;201.07;171.63;;;;;;;6.22;63.16;99965.69;5038846;28;20017;-40
2024/01/14 10:39:35;;;;;;;197.85;171.77;;;;;;;5.97;63.39;99966.94;5040483;28;20037;-40
2024/01/14 10:42:01;;;;;;;173.43;147.65;;;;;;;6.15;63.47;99969.53;5037266;28;20033;-41
2024/01/14 10:44:32;;;;;;;176.75;149.73;;;;;;;6.27;63.53;99963.69;5035233;28;20475;-40
2024/01/14 10:47:02;;;;;;;164.15;141.90;;;;;;;6.12;63.06;99962.72;5037267;28;20032;-40
2024/01/14 10:49:28;;;;;;;146.98;124.05;;;;;;;6.01;63.76;99963.25;5039586;28;20047;-41
2024/01/14 10:51:58;;;;;;;156.90;133.70;;;;;;;6.12;63.44;99956.66;5040107;28;20395;-39
2024/01/14 10:54:55;;;;;;;174.48;148.45;;;;;;;6.09;64.08;99950.66;5038471;28;20052;-40
2024/01/14 10:57:36;;;;;;;202.40;173.98;;;;;;;6.01;64.60;99955.41;5020331;28;20052;-39
2024/01/14 11:00:06;;;;;;;216.57;183.65;;;;;;;6.10;64.03;99954.97;5029618;28;20037;-40
2024/01/14 11:02:37;;;;;;;190.25;160.52;;;;;;;6.01;64.49;99967.66;5037572;28;20160;-39
2024/01/14 11:05:03;;;;;;;153.07;134.27;;;;;;;6.00;65.09;99960.72;5040685;28;20052;-39
2024/01/14 11:07:32;;;;;;;193.50;168.50;;;;;;;6.20;64.48;99959.69;5036926;28;20029;-39
2024/01/14 11:09:57;;;;;;;211.90;180.40;;;;;;;5.93;65.50;99954.94;5039188;28;21122;-40
2024/01/14 11:12:43;;;;;;;262.17;224.35;;;;;;;5.77;64.81;99960.09;5035223;28;20372;-40